sensor_id;sensor_type;location;lat;lon;timestamp;P1;durP1;ratioP1;P2;durP2;ratioP2
8252;SDS011;61313;48.396;10.008;2023-05-06T00:00:28;8.67;;;5.30;;
8252;SDS011;61313;48.396;10.008;2023-05-06T00:02:54;6.00;;;5.40;;
8252;SDS011;61313;48.396;10.008;2023-05-06T00:05:19;5.47;;;4.97;;
8252;SDS011;61313;48.396;10.008;2023-05-06T00:07:45;7.70;;;4.87;;
8252;SDS011;61313;48.396;10.008;2023-05-06T00:10:10;6.23;;;5.03;;
8252;SDS011;61313;48.396;10.008;2023-05-06T00:12:36;11.67;;;4.77;;
8252;SDS011;61313;48.396;10.008;2023-05-06T00:15:02;6.67;;;4.23;;
8252;SDS011;61313;48.396;10.008;2023-05-06T00:17:28;8.50;;;4.43;;
8252;SDS011;61313;48.396;10.008;2023-05-06T00:19:54;4.53;;;4.13;;
8252;SDS011;61313;48.396;10.008;2023-05-06T00:22:20;6.30;;;5.70;;
8252;SDS011;61313;48.396;10.008;2023-05-06T00:24:46;4.90;;;4.50;;
8252;SDS011;61313;48.396;10.008;2023-05-06T00:27:11;8.10;;;5.67;;
8252;SDS011;61313;48.396;10.008;2023-05-06T00:29:37;8.53;;;5.70;;
8252;SDS011;61313;48.396;10.008;2023-05-06T00:32:02;6.50;;;5.50;;
8252;SDS011;61313;48.396;10.008;2023-05-06T00:34:28;5.80;;;5.20;;
8252;SDS011;61313;48.396;10.008;2023-05-06T00:36:54;7.93;;;5.43;;
8252;SDS011;61313;48.396;10.008;2023-05-06T00:39:19;6.40;;;5.10;;
8252;SDS011;61313;48.396;10.008;2023-05-06T00:41:45;6.83;;;5.77;;
8252;SDS011;61313;48.396;10.008;2023-05-06T00:44:11;5.10;;;4.63;;
8252;SDS011;61313;48.396;10.008;2023-05-06T00:46:36;5.77;;;5.10;;
8252;SDS011;61313;48.396;10.008;2023-05-06T00:49:02;17.37;;;6.20;;
8252;SDS011;61313;48.396;10.008;2023-05-06T00:51:28;6.80;;;6.10;;
8252;SDS011;61313;48.396;10.008;2023-05-06T00:53:53;6.80;;;5.47;;
8252;SDS011;61313;48.396;10.008;2023-05-06T00:56:19;8.50;;;5.63;;
8252;SDS011;61313;48.396;10.008;2023-05-06T00:58:44;7.33;;;5.17;;
8252;SDS011;61313;48.396;10.008;2023-05-06T01:01:10;6.77;;;6.07;;
8252;SDS011;61313;48.396;10.008;2023-05-06T01:03:36;6.63;;;5.40;;
8252;SDS011;61313;48.396;10.008;2023-05-06T01:08:41;7.10;;;5.23;;
8252;SDS011;61313;48.396;10.008;2023-05-06T01:13:58;7.00;;;5.13;;
8252;SDS011;61313;48.396;10.008;2023-05-06T01:16:31;8.10;;;5.67;;
8252;SDS011;61313;48.396;10.008;2023-05-06T01:19:03;5.93;;;5.30;;
8252;SDS011;61313;48.396;10.008;2023-05-06T01:21:30;8.17;;;6.10;;
8252;SDS011;61313;48.396;10.008;2023-05-06T01:23:58;10.83;;;5.90;;
8252;SDS011;61313;48.396;10.008;2023-05-06T01:26:24;7.23;;;5.90;;
8252;SDS011;61313;48.396;10.008;2023-05-06T01:28:50;5.93;;;5.40;;
8252;SDS011;61313;48.396;10.008;2023-05-06T01:31:22;6.67;;;5.77;;
8252;SDS011;61313;48.396;10.008;2023-05-06T01:39:40;8.30;;;5.70;;
8252;SDS011;61313;48.396;10.008;2023-05-06T01:42:06;10.40;;;5.63;;
8252;SDS011;61313;48.396;10.008;2023-05-06T01:44:34;10.40;;;6.00;;
8252;SDS011;61313;48.396;10.008;2023-05-06T01:47:02;6.73;;;5.97;;
8252;SDS011;61313;48.396;10.008;2023-05-06T01:49:29;6.80;;;6.10;;
8252;SDS011;61313;48.396;10.008;2023-05-06T01:51:56;5.73;;;5.07;;
8252;SDS011;61313;48.396;10.008;2023-05-06T01:54:21;9.00;;;5.73;;
8252;SDS011;61313;48.396;10.008;2023-05-06T01:56:47;8.90;;;5.73;;
8252;SDS011;61313;48.396;10.008;2023-05-06T01:59:12;6.43;;;5.83;;
8252;SDS011;61313;48.396;10.008;2023-05-06T02:01:38;7.17;;;6.40;;
8252;SDS011;61313;48.396;10.008;2023-05-06T02:04:03;8.70;;;5.83;;
8252;SDS011;61313;48.396;10.008;2023-05-06T02:06:29;7.23;;;5.93;;
8252;SDS011;61313;48.396;10.008;2023-05-06T02:08:54;8.43;;;6.00;;
8252;SDS011;61313;48.396;10.008;2023-05-06T02:11:19;7.60;;;5.37;;
8252;SDS011;61313;48.396;10.008;2023-05-06T02:13:45;7.03;;;6.20;;
8252;SDS011;61313;48.396;10.008;2023-05-06T02:16:10;7.50;;;5.63;;
8252;SDS011;61313;48.396;10.008;2023-05-06T02:18:36;8.70;;;6.30;;
8252;SDS011;61313;48.396;10.008;2023-05-06T02:21:01;7.50;;;6.40;;
8252;SDS011;61313;48.396;10.008;2023-05-06T02:23:27;6.70;;;6.10;;
8252;SDS011;61313;48.396;10.008;2023-05-06T02:25:53;7.03;;;6.33;;
8252;SDS011;61313;48.396;10.008;2023-05-06T02:28:18;7.27;;;6.57;;
8252;SDS011;61313;48.396;10.008;2023-05-06T02:30:44;7.67;;;6.50;;
8252;SDS011;61313;48.396;10.008;2023-05-06T02:33:09;9.87;;;6.17;;
8252;SDS011;61313;48.396;10.008;2023-05-06T02:35:35;7.33;;;5.93;;
8252;SDS011;61313;48.396;10.008;2023-05-06T02:38:00;6.63;;;6.03;;
8252;SDS011;61313;48.396;10.008;2023-05-06T02:40:26;7.50;;;6.70;;
8252;SDS011;61313;48.396;10.008;2023-05-06T02:42:51;7.80;;;5.97;;
8252;SDS011;61313;48.396;10.008;2023-05-06T02:45:17;7.30;;;6.60;;
8252;SDS011;61313;48.396;10.008;2023-05-06T02:47:42;6.70;;;6.10;;
8252;SDS011;61313;48.396;10.008;2023-05-06T02:50:08;7.07;;;6.30;;
8252;SDS011;61313;48.396;10.008;2023-05-06T02:52:33;7.73;;;7.03;;
8252;SDS011;61313;48.396;10.008;2023-05-06T02:54:59;8.73;;;6.93;;
8252;SDS011;61313;48.396;10.008;2023-05-06T02:57:25;12.50;;;7.60;;
8252;SDS011;61313;48.396;10.008;2023-05-06T02:59:51;12.93;;;7.77;;
8252;SDS011;61313;48.396;10.008;2023-05-06T03:02:16;10.63;;;7.43;;
8252;SDS011;61313;48.396;10.008;2023-05-06T03:04:42;9.70;;;8.70;;
8252;SDS011;61313;48.396;10.008;2023-05-06T03:07:07;10.70;;;7.57;;
8252;SDS011;61313;48.396;10.008;2023-05-06T03:09:32;11.33;;;8.23;;
8252;SDS011;61313;48.396;10.008;2023-05-06T03:11:58;8.70;;;7.90;;
8252;SDS011;61313;48.396;10.008;2023-05-06T03:14:23;11.63;;;8.73;;
8252;SDS011;61313;48.396;10.008;2023-05-06T03:16:49;12.60;;;8.60;;
8252;SDS011;61313;48.396;10.008;2023-05-06T03:19:14;11.53;;;9.97;;
8252;SDS011;61313;48.396;10.008;2023-05-06T03:21:40;15.40;;;11.70;;
8252;SDS011;61313;48.396;10.008;2023-05-06T03:24:05;16.13;;;11.30;;
8252;SDS011;61313;48.396;10.008;2023-05-06T03:26:30;12.30;;;11.07;;
8252;SDS011;61313;48.396;10.008;2023-05-06T03:28:56;14.13;;;10.60;;
8252;SDS011;61313;48.396;10.008;2023-05-06T03:31:21;13.70;;;10.73;;
8252;SDS011;61313;48.396;10.008;2023-05-06T03:33:47;16.83;;;11.30;;
8252;SDS011;61313;48.396;10.008;2023-05-06T03:36:12;11.83;;;10.63;;
8252;SDS011;61313;48.396;10.008;2023-05-06T03:38:38;11.70;;;10.70;;
8252;SDS011;61313;48.396;10.008;2023-05-06T03:41:04;14.57;;;10.60;;
8252;SDS011;61313;48.396;10.008;2023-05-06T03:43:30;15.23;;;10.90;;
8252;SDS011;61313;48.396;10.008;2023-05-06T03:45:56;16.50;;;10.70;;
8252;SDS011;61313;48.396;10.008;2023-05-06T03:48:21;12.07;;;10.87;;
8252;SDS011;61313;48.396;10.008;2023-05-06T03:50:47;11.90;;;9.70;;
8252;SDS011;61313;48.396;10.008;2023-05-06T03:53:13;11.57;;;10.57;;
8252;SDS011;61313;48.396;10.008;2023-05-06T03:55:39;16.80;;;10.10;;
8252;SDS011;61313;48.396;10.008;2023-05-06T03:58:04;15.17;;;11.67;;
8252;SDS011;61313;48.396;10.008;2023-05-06T04:00:30;10.80;;;9.80;;
8252;SDS011;61313;48.396;10.008;2023-05-06T04:02:55;11.03;;;9.93;;
8252;SDS011;61313;48.396;10.008;2023-05-06T04:05:21;10.00;;;9.10;;
8252;SDS011;61313;48.396;10.008;2023-05-06T04:07:46;11.03;;;9.90;;
8252;SDS011;61313;48.396;10.008;2023-05-06T04:10:12;9.83;;;8.93;;
8252;SDS011;61313;48.396;10.008;2023-05-06T04:12:37;13.90;;;11.43;;
8252;SDS011;61313;48.396;10.008;2023-05-06T04:15:03;10.87;;;9.77;;
8252;SDS011;61313;48.396;10.008;2023-05-06T04:17:29;11.17;;;9.90;;
8252;SDS011;61313;48.396;10.008;2023-05-06T04:19:55;16.27;;;11.07;;
8252;SDS011;61313;48.396;10.008;2023-05-06T04:22:21;19.83;;;11.17;;
8252;SDS011;61313;48.396;10.008;2023-05-06T04:24:46;11.33;;;10.30;;
8252;SDS011;61313;48.396;10.008;2023-05-06T04:27:12;11.30;;;10.10;;
8252;SDS011;61313;48.396;10.008;2023-05-06T04:29:38;12.37;;;10.83;;
8252;SDS011;61313;48.396;10.008;2023-05-06T04:32:03;12.20;;;10.97;;
8252;SDS011;61313;48.396;10.008;2023-05-06T04:34:29;12.37;;;11.17;;
8252;SDS011;61313;48.396;10.008;2023-05-06T04:36:55;16.17;;;11.80;;
8252;SDS011;61313;48.396;10.008;2023-05-06T04:39:22;41.83;;;15.60;;
8252;SDS011;61313;48.396;10.008;2023-05-06T04:41:48;17.93;;;11.70;;
8252;SDS011;61313;48.396;10.008;2023-05-06T04:44:13;23.40;;;12.37;;
8252;SDS011;61313;48.396;10.008;2023-05-06T04:46:39;22.33;;;11.33;;
8252;SDS011;61313;48.396;10.008;2023-05-06T04:49:04;13.23;;;11.77;;
8252;SDS011;61313;48.396;10.008;2023-05-06T04:51:30;14.40;;;11.10;;
8252;SDS011;61313;48.396;10.008;2023-05-06T04:53:56;14.07;;;10.80;;
8252;SDS011;61313;48.396;10.008;2023-05-06T04:56:21;25.47;;;12.83;;
8252;SDS011;61313;48.396;10.008;2023-05-06T04:58:46;17.07;;;12.07;;
8252;SDS011;61313;48.396;10.008;2023-05-06T05:01:12;13.57;;;12.00;;
8252;SDS011;61313;48.396;10.008;2023-05-06T05:03:38;13.63;;;11.80;;
8252;SDS011;61313;48.396;10.008;2023-05-06T05:06:03;19.70;;;12.10;;
8252;SDS011;61313;48.396;10.008;2023-05-06T05:08:28;13.13;;;11.70;;
8252;SDS011;61313;48.396;10.008;2023-05-06T05:10:54;18.03;;;13.60;;
8252;SDS011;61313;48.396;10.008;2023-05-06T05:13:19;13.50;;;11.47;;
8252;SDS011;61313;48.396;10.008;2023-05-06T05:15:45;15.50;;;12.10;;
8252;SDS011;61313;48.396;10.008;2023-05-06T05:18:11;14.07;;;12.67;;
8252;SDS011;61313;48.396;10.008;2023-05-06T05:20:36;16.40;;;12.40;;
8252;SDS011;61313;48.396;10.008;2023-05-06T05:23:01;18.37;;;12.50;;
8252;SDS011;61313;48.396;10.008;2023-05-06T05:25:27;17.20;;;12.60;;
8252;SDS011;61313;48.396;10.008;2023-05-06T05:27:53;28.93;;;12.67;;
8252;SDS011;61313;48.396;10.008;2023-05-06T05:30:18;21.80;;;14.67;;
8252;SDS011;61313;48.396;10.008;2023-05-06T05:32:44;16.67;;;12.53;;
8252;SDS011;61313;48.396;10.008;2023-05-06T05:35:09;14.50;;;13.00;;
8252;SDS011;61313;48.396;10.008;2023-05-06T05:37:35;13.80;;;12.40;;
8252;SDS011;61313;48.396;10.008;2023-05-06T05:40:00;19.70;;;13.37;;
8252;SDS011;61313;48.396;10.008;2023-05-06T05:42:26;15.00;;;12.90;;
8252;SDS011;61313;48.396;10.008;2023-05-06T05:44:52;20.63;;;13.20;;
8252;SDS011;61313;48.396;10.008;2023-05-06T05:47:17;18.37;;;13.30;;
8252;SDS011;61313;48.396;10.008;2023-05-06T05:49:43;17.97;;;13.40;;
8252;SDS011;61313;48.396;10.008;2023-05-06T05:52:08;15.93;;;12.10;;
8252;SDS011;61313;48.396;10.008;2023-05-06T05:54:34;17.17;;;12.53;;
8252;SDS011;61313;48.396;10.008;2023-05-06T05:57:00;14.63;;;13.13;;
8252;SDS011;61313;48.396;10.008;2023-05-06T05:59:26;13.20;;;11.80;;
8252;SDS011;61313;48.396;10.008;2023-05-06T06:01:52;17.07;;;12.80;;
8252;SDS011;61313;48.396;10.008;2023-05-06T06:04:18;13.17;;;11.40;;
8252;SDS011;61313;48.396;10.008;2023-05-06T06:06:43;17.10;;;12.30;;
8252;SDS011;61313;48.396;10.008;2023-05-06T06:09:08;13.03;;;11.70;;
8252;SDS011;61313;48.396;10.008;2023-05-06T06:11:35;14.23;;;11.50;;
8252;SDS011;61313;48.396;10.008;2023-05-06T06:14:00;18.30;;;11.13;;
8252;SDS011;61313;48.396;10.008;2023-05-06T06:16:25;12.10;;;11.00;;
8252;SDS011;61313;48.396;10.008;2023-05-06T06:18:52;13.83;;;10.40;;
8252;SDS011;61313;48.396;10.008;2023-05-06T06:21:18;11.70;;;10.60;;
8252;SDS011;61313;48.396;10.008;2023-05-06T06:23:43;13.53;;;11.37;;
8252;SDS011;61313;48.396;10.008;2023-05-06T06:26:08;18.80;;;13.07;;
8252;SDS011;61313;48.396;10.008;2023-05-06T06:28:34;17.53;;;11.00;;
8252;SDS011;61313;48.396;10.008;2023-05-06T06:30:59;18.30;;;10.40;;
8252;SDS011;61313;48.396;10.008;2023-05-06T06:33:25;11.20;;;10.10;;
8252;SDS011;61313;48.396;10.008;2023-05-06T06:35:51;11.00;;;9.20;;
8252;SDS011;61313;48.396;10.008;2023-05-06T06:38:16;12.57;;;9.53;;
8252;SDS011;61313;48.396;10.008;2023-05-06T06:40:42;9.47;;;8.33;;
8252;SDS011;61313;48.396;10.008;2023-05-06T06:43:07;11.00;;;9.83;;
8252;SDS011;61313;48.396;10.008;2023-05-06T06:45:33;10.00;;;9.00;;
8252;SDS011;61313;48.396;10.008;2023-05-06T06:47:58;10.17;;;9.23;;
8252;SDS011;61313;48.396;10.008;2023-05-06T06:50:24;13.50;;;12.10;;
8252;SDS011;61313;48.396;10.008;2023-05-06T06:52:50;10.77;;;9.63;;
8252;SDS011;61313;48.396;10.008;2023-05-06T06:55:16;12.47;;;10.83;;
8252;SDS011;61313;48.396;10.008;2023-05-06T06:57:42;10.17;;;8.20;;
8252;SDS011;61313;48.396;10.008;2023-05-06T07:00:07;15.53;;;7.97;;
8252;SDS011;61313;48.396;10.008;2023-05-06T07:02:33;9.67;;;7.00;;
8252;SDS011;61313;48.396;10.008;2023-05-06T07:04:58;10.90;;;6.70;;
8252;SDS011;61313;48.396;10.008;2023-05-06T07:07:24;9.30;;;7.50;;
8252;SDS011;61313;48.396;10.008;2023-05-06T07:09:49;10.20;;;6.60;;
8252;SDS011;61313;48.396;10.008;2023-05-06T07:12:15;20.40;;;8.53;;
8252;SDS011;61313;48.396;10.008;2023-05-06T07:14:40;12.13;;;6.93;;
8252;SDS011;61313;48.396;10.008;2023-05-06T07:17:06;11.30;;;7.20;;
8252;SDS011;61313;48.396;10.008;2023-05-06T07:19:31;9.87;;;7.37;;
8252;SDS011;61313;48.396;10.008;2023-05-06T07:21:57;16.33;;;7.30;;
8252;SDS011;61313;48.396;10.008;2023-05-06T07:24:23;12.57;;;7.00;;
8252;SDS011;61313;48.396;10.008;2023-05-06T07:26:48;10.60;;;6.37;;
8252;SDS011;61313;48.396;10.008;2023-05-06T07:29:14;9.70;;;6.80;;
8252;SDS011;61313;48.396;10.008;2023-05-06T07:31:39;11.60;;;6.13;;
8252;SDS011;61313;48.396;10.008;2023-05-06T07:34:05;12.67;;;5.23;;
8252;SDS011;61313;48.396;10.008;2023-05-06T07:36:31;13.00;;;5.23;;
8252;SDS011;61313;48.396;10.008;2023-05-06T07:39:04;5.70;;;4.87;;
8252;SDS011;61313;48.396;10.008;2023-05-06T07:41:30;5.30;;;4.27;;
8252;SDS011;61313;48.396;10.008;2023-05-06T07:43:55;5.83;;;4.20;;
8252;SDS011;61313;48.396;10.008;2023-05-06T07:46:21;4.53;;;3.87;;
8252;SDS011;61313;48.396;10.008;2023-05-06T07:48:46;4.67;;;4.27;;
8252;SDS011;61313;48.396;10.008;2023-05-06T07:51:11;4.60;;;4.20;;
8252;SDS011;61313;48.396;10.008;2023-05-06T07:53:37;9.53;;;5.60;;
8252;SDS011;61313;48.396;10.008;2023-05-06T07:56:04;11.80;;;4.97;;
8252;SDS011;61313;48.396;10.008;2023-05-06T07:58:30;7.20;;;5.10;;
8252;SDS011;61313;48.396;10.008;2023-05-06T08:00:55;9.00;;;5.20;;
8252;SDS011;61313;48.396;10.008;2023-05-06T08:03:21;8.03;;;4.80;;
8252;SDS011;61313;48.396;10.008;2023-05-06T08:05:48;6.40;;;4.87;;
8252;SDS011;61313;48.396;10.008;2023-05-06T08:08:14;4.87;;;4.33;;
8252;SDS011;61313;48.396;10.008;2023-05-06T08:10:41;6.00;;;4.27;;
8252;SDS011;61313;48.396;10.008;2023-05-06T08:13:07;5.07;;;4.47;;
8252;SDS011;61313;48.396;10.008;2023-05-06T08:15:33;13.63;;;5.00;;
8252;SDS011;61313;48.396;10.008;2023-05-06T08:17:58;5.23;;;4.07;;
8252;SDS011;61313;48.396;10.008;2023-05-06T08:20:24;5.80;;;4.10;;
8252;SDS011;61313;48.396;10.008;2023-05-06T08:22:49;5.33;;;3.93;;
8252;SDS011;61313;48.396;10.008;2023-05-06T08:25:14;11.23;;;5.00;;
8252;SDS011;61313;48.396;10.008;2023-05-06T08:27:40;13.93;;;5.80;;
8252;SDS011;61313;48.396;10.008;2023-05-06T08:30:06;6.70;;;5.87;;
8252;SDS011;61313;48.396;10.008;2023-05-06T08:32:32;11.30;;;5.30;;
8252;SDS011;61313;48.396;10.008;2023-05-06T08:34:57;5.47;;;4.00;;
8252;SDS011;61313;48.396;10.008;2023-05-06T08:37:24;5.17;;;4.00;;
8252;SDS011;61313;48.396;10.008;2023-05-06T08:39:50;20.67;;;5.00;;
8252;SDS011;61313;48.396;10.008;2023-05-06T08:42:15;11.57;;;4.23;;
8252;SDS011;61313;48.396;10.008;2023-05-06T08:44:41;7.73;;;4.53;;
8252;SDS011;61313;48.396;10.008;2023-05-06T08:47:08;8.87;;;4.77;;
8252;SDS011;61313;48.396;10.008;2023-05-06T08:49:33;7.70;;;4.97;;
8252;SDS011;61313;48.396;10.008;2023-05-06T08:51:59;9.57;;;4.90;;
8252;SDS011;61313;48.396;10.008;2023-05-06T08:54:29;15.33;;;5.83;;
8252;SDS011;61313;48.396;10.008;2023-05-06T08:56:58;5.93;;;5.23;;
8252;SDS011;61313;48.396;10.008;2023-05-06T08:59:28;5.33;;;4.77;;
8252;SDS011;61313;48.396;10.008;2023-05-06T09:01:56;5.60;;;4.90;;
8252;SDS011;61313;48.396;10.008;2023-05-06T09:04:23;5.50;;;4.23;;
8252;SDS011;61313;48.396;10.008;2023-05-06T09:06:48;4.90;;;4.50;;
8252;SDS011;61313;48.396;10.008;2023-05-06T09:09:14;7.87;;;4.50;;
8252;SDS011;61313;48.396;10.008;2023-05-06T09:11:39;13.03;;;4.80;;
8252;SDS011;61313;48.396;10.008;2023-05-06T09:14:09;5.13;;;3.77;;
8252;SDS011;61313;48.396;10.008;2023-05-06T09:16:37;6.50;;;4.07;;
8252;SDS011;61313;48.396;10.008;2023-05-06T09:19:03;6.57;;;3.90;;
8252;SDS011;61313;48.396;10.008;2023-05-06T09:21:36;4.80;;;3.13;;
8252;SDS011;61313;48.396;10.008;2023-05-06T09:24:07;5.33;;;3.00;;
8252;SDS011;61313;48.396;10.008;2023-05-06T09:26:34;5.50;;;3.60;;
8252;SDS011;61313;48.396;10.008;2023-05-06T09:29:01;4.20;;;3.47;;
8252;SDS011;61313;48.396;10.008;2023-05-06T09:31:27;5.50;;;3.13;;
8252;SDS011;61313;48.396;10.008;2023-05-06T09:33:54;7.27;;;3.30;;
8252;SDS011;61313;48.396;10.008;2023-05-06T09:36:22;4.20;;;3.50;;
8252;SDS011;61313;48.396;10.008;2023-05-06T09:38:52;6.07;;;4.43;;
8252;SDS011;61313;48.396;10.008;2023-05-06T09:41:20;10.67;;;3.87;;
8252;SDS011;61313;48.396;10.008;2023-05-06T09:43:47;12.73;;;4.27;;
8252;SDS011;61313;48.396;10.008;2023-05-06T09:46:16;4.70;;;4.07;;
8252;SDS011;61313;48.396;10.008;2023-05-06T09:48:41;5.07;;;4.00;;
8252;SDS011;61313;48.396;10.008;2023-05-06T09:51:07;5.07;;;4.47;;
8252;SDS011;61313;48.396;10.008;2023-05-06T09:53:33;6.10;;;3.90;;
8252;SDS011;61313;48.396;10.008;2023-05-06T09:56:01;10.87;;;4.17;;
8252;SDS011;61313;48.396;10.008;2023-05-06T09:58:28;4.47;;;3.50;;
8252;SDS011;61313;48.396;10.008;2023-05-06T10:00:56;3.47;;;3.17;;
8252;SDS011;61313;48.396;10.008;2023-05-06T10:03:21;8.80;;;4.87;;
8252;SDS011;61313;48.396;10.008;2023-05-06T10:05:49;9.23;;;3.83;;
8252;SDS011;61313;48.396;10.008;2023-05-06T10:08:14;3.50;;;3.20;;
8252;SDS011;61313;48.396;10.008;2023-05-06T10:10:43;4.80;;;3.80;;
8252;SDS011;61313;48.396;10.008;2023-05-06T10:13:11;8.40;;;3.30;;
8252;SDS011;61313;48.396;10.008;2023-05-06T10:15:37;5.10;;;4.10;;
8252;SDS011;61313;48.396;10.008;2023-05-06T10:18:04;7.90;;;3.63;;
8252;SDS011;61313;48.396;10.008;2023-05-06T10:20:32;4.93;;;3.67;;
8252;SDS011;61313;48.396;10.008;2023-05-06T10:25:40;4.77;;;3.00;;
8252;SDS011;61313;48.396;10.008;2023-05-06T10:28:07;4.60;;;3.30;;
8252;SDS011;61313;48.396;10.008;2023-05-06T10:30:34;3.40;;;3.00;;
8252;SDS011;61313;48.396;10.008;2023-05-06T10:33:18;8.80;;;4.40;;
8252;SDS011;61313;48.396;10.008;2023-05-06T10:35:48;5.77;;;3.33;;
8252;SDS011;61313;48.396;10.008;2023-05-06T10:38:25;3.70;;;2.87;;
8252;SDS011;61313;48.396;10.008;2023-05-06T10:40:54;8.43;;;3.20;;
8252;SDS011;61313;48.396;10.008;2023-05-06T10:43:27;2.97;;;2.47;;
8252;SDS011;61313;48.396;10.008;2023-05-06T10:48:37;4.63;;;3.10;;
8252;SDS011;61313;48.396;10.008;2023-05-06T10:51:20;13.60;;;4.10;;
8252;SDS011;61313;48.396;10.008;2023-05-06T10:56:19;8.83;;;3.50;;
8252;SDS011;61313;48.396;10.008;2023-05-06T10:58:46;3.77;;;3.30;;
8252;SDS011;61313;48.396;10.008;2023-05-06T11:01:13;5.40;;;3.00;;
8252;SDS011;61313;48.396;10.008;2023-05-06T11:03:40;8.63;;;3.40;;
8252;SDS011;61313;48.396;10.008;2023-05-06T11:06:07;13.07;;;3.87;;
8252;SDS011;61313;48.396;10.008;2023-05-06T11:08:33;7.83;;;3.30;;
8252;SDS011;61313;48.396;10.008;2023-05-06T11:10:59;8.30;;;3.00;;
8252;SDS011;61313;48.396;10.008;2023-05-06T11:13:28;18.43;;;4.20;;
8252;SDS011;61313;48.396;10.008;2023-05-06T11:15:58;6.27;;;2.80;;
8252;SDS011;61313;48.396;10.008;2023-05-06T11:26:16;3.30;;;2.53;;
8252;SDS011;61313;48.396;10.008;2023-05-06T11:28:42;4.33;;;3.17;;
8252;SDS011;61313;48.396;10.008;2023-05-06T11:31:12;4.00;;;2.63;;
8252;SDS011;61313;48.396;10.008;2023-05-06T11:33:43;3.33;;;3.03;;
8252;SDS011;61313;48.396;10.008;2023-05-06T11:36:14;6.80;;;2.90;;
8252;SDS011;61313;48.396;10.008;2023-05-06T11:41:16;7.23;;;3.20;;
8252;SDS011;61313;48.396;10.008;2023-05-06T11:43:46;6.03;;;3.17;;
8252;SDS011;61313;48.396;10.008;2023-05-06T11:46:18;4.63;;;2.33;;
8252;SDS011;61313;48.396;10.008;2023-05-06T11:48:45;6.03;;;2.93;;
8252;SDS011;61313;48.396;10.008;2023-05-06T11:51:10;5.80;;;3.30;;
8252;SDS011;61313;48.396;10.008;2023-05-06T11:53:36;11.00;;;3.47;;
8252;SDS011;61313;48.396;10.008;2023-05-06T11:56:02;7.27;;;2.40;;
8252;SDS011;61313;48.396;10.008;2023-05-06T11:58:30;3.40;;;2.57;;
8252;SDS011;61313;48.396;10.008;2023-05-06T12:00:56;7.83;;;3.50;;
8252;SDS011;61313;48.396;10.008;2023-05-06T12:03:23;10.17;;;2.87;;
8252;SDS011;61313;48.396;10.008;2023-05-06T12:05:50;4.03;;;2.53;;
8252;SDS011;61313;48.396;10.008;2023-05-06T12:08:17;6.10;;;2.90;;
8252;SDS011;61313;48.396;10.008;2023-05-06T12:10:47;4.23;;;3.23;;
8252;SDS011;61313;48.396;10.008;2023-05-06T12:13:16;3.40;;;2.80;;
8252;SDS011;61313;48.396;10.008;2023-05-06T12:15:42;5.60;;;2.70;;
8252;SDS011;61313;48.396;10.008;2023-05-06T12:18:08;10.63;;;3.33;;
8252;SDS011;61313;48.396;10.008;2023-05-06T12:20:34;18.87;;;3.80;;
8252;SDS011;61313;48.396;10.008;2023-05-06T12:23:07;5.67;;;2.57;;
8252;SDS011;61313;48.396;10.008;2023-05-06T12:25:33;4.97;;;3.20;;
8252;SDS011;61313;48.396;10.008;2023-05-06T12:27:59;8.93;;;3.40;;
8252;SDS011;61313;48.396;10.008;2023-05-06T12:30:30;7.83;;;2.70;;
8252;SDS011;61313;48.396;10.008;2023-05-06T12:32:56;3.13;;;2.83;;
8252;SDS011;61313;48.396;10.008;2023-05-06T12:35:29;2.57;;;2.37;;
8252;SDS011;61313;48.396;10.008;2023-05-06T12:37:56;6.53;;;2.70;;
8252;SDS011;61313;48.396;10.008;2023-05-06T12:40:31;5.73;;;3.03;;
8252;SDS011;61313;48.396;10.008;2023-05-06T12:42:56;3.80;;;2.50;;
8252;SDS011;61313;48.396;10.008;2023-05-06T12:45:22;7.33;;;2.50;;
8252;SDS011;61313;48.396;10.008;2023-05-06T12:47:52;4.90;;;2.70;;
8252;SDS011;61313;48.396;10.008;2023-05-06T12:52:56;9.57;;;4.07;;
8252;SDS011;61313;48.396;10.008;2023-05-06T12:55:22;5.70;;;2.73;;
8252;SDS011;61313;48.396;10.008;2023-05-06T12:57:49;2.73;;;2.53;;
8252;SDS011;61313;48.396;10.008;2023-05-06T13:00:19;4.70;;;2.90;;
8252;SDS011;61313;48.396;10.008;2023-05-06T13:02:45;8.37;;;2.40;;
8252;SDS011;61313;48.396;10.008;2023-05-06T13:05:11;9.60;;;3.40;;
8252;SDS011;61313;48.396;10.008;2023-05-06T13:07:36;3.30;;;2.30;;
8252;SDS011;61313;48.396;10.008;2023-05-06T13:10:02;4.93;;;2.70;;
8252;SDS011;61313;48.396;10.008;2023-05-06T13:12:30;10.97;;;2.80;;
8252;SDS011;61313;48.396;10.008;2023-05-06T13:14:56;4.53;;;2.50;;
8252;SDS011;61313;48.396;10.008;2023-05-06T13:17:21;8.80;;;3.40;;
8252;SDS011;61313;48.396;10.008;2023-05-06T13:19:47;14.20;;;2.80;;
8252;SDS011;61313;48.396;10.008;2023-05-06T13:22:12;5.50;;;2.57;;
8252;SDS011;61313;48.396;10.008;2023-05-06T13:24:38;4.33;;;2.30;;
8252;SDS011;61313;48.396;10.008;2023-05-06T13:27:03;6.07;;;2.13;;
8252;SDS011;61313;48.396;10.008;2023-05-06T13:29:29;6.50;;;2.13;;
8252;SDS011;61313;48.396;10.008;2023-05-06T13:31:54;16.23;;;3.63;;
8252;SDS011;61313;48.396;10.008;2023-05-06T13:34:20;15.37;;;3.77;;
8252;SDS011;61313;48.396;10.008;2023-05-06T13:36:45;8.00;;;2.70;;
8252;SDS011;61313;48.396;10.008;2023-05-06T13:39:13;4.70;;;2.30;;
8252;SDS011;61313;48.396;10.008;2023-05-06T13:41:40;8.03;;;2.93;;
8252;SDS011;61313;48.396;10.008;2023-05-06T13:44:06;11.87;;;3.00;;
8252;SDS011;61313;48.396;10.008;2023-05-06T13:46:31;8.30;;;2.97;;
8252;SDS011;61313;48.396;10.008;2023-05-06T13:48:57;3.00;;;2.00;;
8252;SDS011;61313;48.396;10.008;2023-05-06T13:51:22;12.80;;;3.70;;
8252;SDS011;61313;48.396;10.008;2023-05-06T13:53:48;4.30;;;2.03;;
8252;SDS011;61313;48.396;10.008;2023-05-06T13:56:13;10.27;;;2.60;;
8252;SDS011;61313;48.396;10.008;2023-05-06T13:58:38;5.13;;;2.23;;
8252;SDS011;61313;48.396;10.008;2023-05-06T14:01:04;3.13;;;1.80;;
8252;SDS011;61313;48.396;10.008;2023-05-06T14:03:30;4.23;;;2.10;;
8252;SDS011;61313;48.396;10.008;2023-05-06T14:05:55;3.20;;;1.80;;
8252;SDS011;61313;48.396;10.008;2023-05-06T14:08:21;3.60;;;1.97;;
8252;SDS011;61313;48.396;10.008;2023-05-06T14:10:46;3.23;;;2.30;;
8252;SDS011;61313;48.396;10.008;2023-05-06T14:13:11;6.53;;;2.47;;
8252;SDS011;61313;48.396;10.008;2023-05-06T14:15:37;2.63;;;2.10;;
8252;SDS011;61313;48.396;10.008;2023-05-06T14:18:02;8.20;;;2.60;;
8252;SDS011;61313;48.396;10.008;2023-05-06T14:20:28;11.47;;;3.17;;
8252;SDS011;61313;48.396;10.008;2023-05-06T14:22:53;13.27;;;3.00;;
8252;SDS011;61313;48.396;10.008;2023-05-06T14:25:19;12.23;;;3.30;;
8252;SDS011;61313;48.396;10.008;2023-05-06T14:27:50;5.50;;;2.80;;
8252;SDS011;61313;48.396;10.008;2023-05-06T14:30:18;2.90;;;2.10;;
8252;SDS011;61313;48.396;10.008;2023-05-06T14:32:44;2.83;;;2.10;;
8252;SDS011;61313;48.396;10.008;2023-05-06T14:35:10;7.03;;;2.40;;
8252;SDS011;61313;48.396;10.008;2023-05-06T14:37:36;3.37;;;2.50;;
8252;SDS011;61313;48.396;10.008;2023-05-06T14:40:02;6.23;;;2.60;;
8252;SDS011;61313;48.396;10.008;2023-05-06T14:42:28;26.03;;;4.83;;
8252;SDS011;61313;48.396;10.008;2023-05-06T14:44:54;8.30;;;3.00;;
8252;SDS011;61313;48.396;10.008;2023-05-06T14:47:20;10.97;;;5.20;;
8252;SDS011;61313;48.396;10.008;2023-05-06T14:49:45;6.90;;;2.73;;
8252;SDS011;61313;48.396;10.008;2023-05-06T14:52:11;7.20;;;2.60;;
8252;SDS011;61313;48.396;10.008;2023-05-06T14:54:36;5.30;;;2.50;;
8252;SDS011;61313;48.396;10.008;2023-05-06T14:57:06;9.63;;;3.27;;
8252;SDS011;61313;48.396;10.008;2023-05-06T14:59:35;4.03;;;2.90;;
8252;SDS011;61313;48.396;10.008;2023-05-06T15:02:01;8.47;;;2.80;;
8252;SDS011;61313;48.396;10.008;2023-05-06T15:04:27;3.13;;;2.67;;
8252;SDS011;61313;48.396;10.008;2023-05-06T15:06:53;10.10;;;3.87;;